This is the latest recevied weather packets stored in our database for station/object WX4SGA. If no packets are shown the sender has not sent any weather packets the latest 10 day(s).
| Time | Temp. | Humidity | Pressure | Rain* | Wind** | Luminosity | Snow |
|---|---|---|---|---|---|---|---|
| 1788457394 | 32.22° C | 69% | 1016.6 hPa | 0 mm | - | 942 W/m² | - |
| 1788457089 | 31.67° C | 69% | 1016.3 hPa | 0 mm | - | 896 W/m² | - |
| 1788456785 | 30.56° C | 73% | 1016.6 hPa | 0 mm | - | 865 W/m² | - |
| 1788456481 | 30.56° C | 73% | 1016.6 hPa | 0 mm | - | 172 W/m² | - |
| 1788456175 | 31.67° C | 70% | 1016.9 hPa | 0 mm | - | 187 W/m² | - |
| 1788455870 | 31.11° C | 70% | 1016.9 hPa | 0 mm | - | 915 W/m² | - |
| 1788455565 | 31.67° C | 73% | 1016.9 hPa | 0 mm | - | 421 W/m² | - |
| 1788455263 | 31.67° C | 73% | 1016.9 hPa | 0 mm | - | 842 W/m² | - |
| 1788454959 | 31.67° C | 72% | 1016.9 hPa | 0 mm | - | 982 W/m² | - |
| 1788454657 | 30.56° C | 73% | 1016.9 hPa | 0 mm | - | 660 W/m² | - |
| 1788454352 | 30.56° C | 73% | 1016.9 hPa | 0 mm | - | 223 W/m² | - |
| 1788454047 | 31.11° C | 73% | 1017.3 hPa | 0 mm | - | 230 W/m² | - |
| 1788453743 | 30° C | 73% | 1017.3 hPa | 0 mm | - | 896 W/m² | - |
| 1788453442 | 30.56° C | 73% | 1017.3 hPa | 0 mm | - | 131 W/m² | - |
| 1788453139 | 31.11° C | 74% | 1017.3 hPa | 0 mm | - | 845 W/m² | - |
| 1788452834 | 30.56° C | 75% | 1017.3 hPa | 0 mm | - | 888 W/m² | - |
| 1788452530 | 30.56° C | 73% | 1017.3 hPa | 0 mm | - | 886 W/m² | - |
| 1788452226 | 30° C | 75% | 1017.3 hPa | 0 mm | - | 889 W/m² | - |
| 1788451921 | 30° C | 76% | 1017.6 hPa | 0 mm | - | 125 W/m² | - |
| 1788451617 | 31.11° C | 71% | 1017.6 hPa | 0 mm | - | 836 W/m² | - |
| 1788451311 | 30.56° C | 74% | 1017.6 hPa | 0 mm | - | 769 W/m² | - |
| 1788451009 | 30° C | 77% | 1017.6 hPa | 0 mm | - | 764 W/m² | - |
| 1788450704 | 30° C | 77% | 1017.6 hPa | 0 mm | - | 827 W/m² | - |
| 1788450401 | 30.56° C | 75% | 1017.6 hPa | 0 mm | - | 147 W/m² | - |
| 1788450096 | 28.89° C | 79% | 1017.6 hPa | 0 mm | - | 753 W/m² | - |
* Rain latest hour (hover to see other rain measurements)
** Current wind speed in m/s (hover to see current wind gust speed)